Time;durP1;ratioP1;P1;durP2;ratioP2;P2;SDS_P1;SDS_P2;PMS_P1;PMS_P2;Temp;Humidity;BMP_temperature;BMP_pressure;BME280_temperature;BME280_humidity;BME280_pressure;Samples;Min_cycle;Max_cycle;Signal;HPM_P1;HPM_P2
2022/03/29 00:02:21;;;;;;;0.30;0.30;;;9.90;99.90;9.40;101491.00;;;;5115562;28;20188;-66
2022/03/29 00:05:02;;;;;;;14.43;4.80;;;9.90;99.90;9.40;101486.00;;;;5093578;28;20550;-66
2022/03/29 00:07:41;;;;;;;1.07;0.97;;;10.00;99.90;9.30;101487.00;;;;5094440;28;20180;-66
2022/03/29 00:10:18;;;;;;;2.20;2.10;;;9.80;99.90;9.00;101491.00;;;;5095049;28;20240;-66
2022/03/29 00:12:55;;;;;;;1.30;1.30;;;9.70;99.90;9.40;101487.00;;;;5093881;28;20403;-66
2022/03/29 00:15:32;;;;;;;3.80;3.60;;;9.80;99.90;9.30;101438.00;;;;5094285;28;20249;-66
2022/03/29 00:18:09;;;;;;;1.33;1.23;;;9.80;99.90;8.70;101472.00;;;;5095361;28;20183;-66
2022/03/29 00:20:49;;;;;;;1.13;1.03;;;9.60;99.90;8.80;101478.00;;;;5093827;28;20260;-66
2022/03/29 00:23:28;;;;;;;0.30;0.30;;;9.50;99.90;9.40;101474.00;;;;5093955;28;20196;-66
2022/03/29 00:25:59;;;;;;;1.73;1.50;;;9.70;99.90;9.60;101453.00;;;;5095064;28;20172;-66
2022/03/29 00:28:38;;;;;;;3.67;3.40;;;9.80;99.90;9.60;101461.00;;;;5076666;28;20197;-67
2022/03/29 00:31:19;;;;;;;2.50;2.30;;;9.90;99.90;9.30;101456.00;;;;5093767;28;20176;-67
2022/03/29 00:33:57;;;;;;;0.43;0.43;;;9.90;99.90;9.30;101460.00;;;;5077408;28;20186;-67
2022/03/29 00:36:28;;;;;;;0.40;0.40;;;9.80;99.90;9.90;101427.00;;;;5112342;28;20184;-67
2022/03/29 00:39:07;;;;;;;0.30;0.30;;;10.00;99.90;10.10;101446.00;;;;5114249;28;20186;-67
2022/03/29 00:41:41;;;;;;;1.40;1.07;;;10.10;99.90;10.20;101452.00;;;;5114368;28;20218;-66
2022/03/29 00:44:16;;;;;;;1.27;1.17;;;10.20;99.90;10.60;101433.00;;;;5114207;28;20201;-66
2022/03/29 00:46:58;;;;;;;2.93;2.73;;;10.50;99.90;10.80;101416.00;;;;5097058;28;20631;-66
2022/03/29 00:49:31;;;;;;;2.83;2.73;;;10.70;99.90;10.40;101435.00;;;;5115100;28;20157;-66
2022/03/29 00:52:09;;;;;;;2.97;2.03;;;10.60;99.90;10.70;101438.00;;;;5090656;28;20270;-66
2022/03/29 00:54:46;;;;;;;0.40;0.40;;;10.70;99.90;10.30;101383.00;;;;5092379;28;20177;-66
2022/03/29 00:57:25;;;;;;;1.10;1.10;;;10.60;99.90;10.50;101405.00;;;;5075434;28;20267;-66
2022/03/29 00:59:59;;;;;;;0.50;0.50;;;10.60;99.90;10.30;101422.00;;;;5094072;28;20174;-66
2022/03/29 01:02:34;;;;;;;0.40;0.40;;;10.60;99.90;10.90;101416.00;;;;5076606;28;20205;-66
2022/03/29 01:05:12;;;;;;;0.40;0.40;;;10.80;99.90;10.60;101407.00;;;;5093187;28;20187;-66
2022/03/29 01:07:48;;;;;;;1.07;1.07;;;10.80;99.90;10.80;101408.00;;;;5093795;28;20640;-66
2022/03/29 01:10:26;;;;;;;7.60;1.37;;;10.80;99.90;10.50;101403.00;;;;5076926;28;20279;-66
2022/03/29 01:13:03;;;;;;;1.43;1.43;;;10.80;99.90;10.60;101398.00;;;;5093187;28;20215;-66
2022/03/29 01:15:38;;;;;;;0.53;0.53;;;10.70;99.90;10.40;101356.00;;;;5091524;28;20193;-66
2022/03/29 01:18:17;;;;;;;0.40;0.40;;;10.70;99.90;10.00;101399.00;;;;5075882;28;20184;-66
2022/03/29 01:20:56;;;;;;;0.40;0.40;;;10.50;99.90;10.60;101350.00;;;;5076794;28;20177;-65
2022/03/29 01:23:35;;;;;;;1.50;1.50;;;10.60;99.90;10.30;101391.00;;;;5076123;28;20176;-66
2022/03/29 01:26:09;;;;;;;0.60;0.60;;;10.60;99.90;9.50;101384.00;;;;5077132;28;20177;-66
2022/03/29 01:28:43;;;;;;;2.30;2.20;;;10.20;99.90;10.00;101378.00;;;;5093005;28;20183;-66
2022/03/29 01:31:20;;;;;;;0.87;0.87;;;10.30;99.90;9.50;101343.00;;;;5073342;28;20213;-66
2022/03/29 01:33:56;;;;;;;1.20;0.83;;;10.10;99.90;9.70;101340.00;;;;5092342;28;20184;-65
2022/03/29 01:36:33;;;;;;;0.60;0.60;;;10.00;99.90;9.60;101367.00;;;;5092829;28;20174;-66
2022/03/29 01:39:06;;;;;;;0.30;0.30;;;10.00;99.90;9.50;101364.00;;;;5075589;28;20176;-66
2022/03/29 01:41:43;;;;;;;0.37;0.37;;;10.00;99.90;9.60;101361.00;;;;5092697;28;20552;-65
2022/03/29 01:44:23;;;;;;;0.30;0.30;;;10.00;99.90;9.70;101367.00;;;;5093270;28;20188;-66
2022/03/29 01:47:05;;;;;;;0.73;0.73;;;9.90;99.90;10.10;101345.00;;;;5090223;28;20242;-66
2022/03/29 01:49:45;;;;;;;0.40;0.40;;;10.10;99.90;9.60;101345.00;;;;5092603;28;20176;-66
2022/03/29 01:52:22;;;;;;;1.07;1.07;;;10.00;99.90;9.30;101308.00;;;;5093552;28;20200;-66
2022/03/29 01:55:02;;;;;;;7.33;1.50;;;9.90;99.90;9.50;101334.00;;;;5092609;28;20185;-66
2022/03/29 01:57:44;;;;;;;2.17;1.97;;;9.80;99.90;9.10;101305.00;;;;5092464;28;20205;-67
2022/03/29 02:00:30;;;;;;;0.90;0.90;;;9.70;99.90;9.00;101287.00;;;;5092262;28;20189;-67
2022/03/29 02:03:05;;;;;;;1.90;1.80;;;9.60;99.90;9.10;101330.00;;;;5093051;28;20207;-67
2022/03/29 02:05:39;;;;;;;2.83;2.30;;;9.70;99.90;8.90;101287.00;;;;5094068;28;20179;-66
2022/03/29 02:08:05;;;;;;;1.27;1.27;;;9.50;99.90;9.60;101316.00;;;;5113554;28;20190;-68
2022/03/29 02:10:42;;;;;;;1.33;1.33;;;9.70;99.90;9.90;101320.00;;;;5113869;28;20653;-67
2022/03/29 02:13:21;;;;;;;1.13;1.13;;;10.00;99.90;9.70;101323.00;;;;5094885;28;20265;-67
2022/03/29 02:15:55;;;;;;;2.40;1.77;;;10.00;99.90;10.40;101318.00;;;;5113952;28;20180;-67
2022/03/29 02:18:29;;;;;;;1.33;1.23;;;10.30;99.90;10.60;101315.00;;;;5097252;28;20174;-67
2022/03/29 02:21:03;;;;;;;0.30;0.30;;;10.50;99.90;10.50;101307.00;;;;5091428;28;20317;-67
2022/03/29 02:23:37;;;;;;;1.50;1.43;;;10.60;99.90;10.40;101307.00;;;;5075220;28;20187;-65
2022/03/29 02:26:12;;;;;;;3.43;3.33;;;10.50;99.90;10.00;101307.00;;;;5092009;28;20213;-65
2022/03/29 02:28:43;;;;;;;0.67;0.67;;;10.50;99.90;10.20;101307.00;;;;5074470;28;20188;-66
2022/03/29 02:31:14;;;;;;;0.40;0.40;;;10.50;99.90;10.80;101301.00;;;;5091660;28;20184;-66
2022/03/29 02:33:48;;;;;;;0.40;0.40;;;10.60;99.90;11.10;101268.00;;;;5093371;28;20675;-65
2022/03/29 02:36:19;;;;;;;0.60;0.60;;;10.90;99.90;11.00;101267.00;;;;5091475;28;20182;-66
2022/03/29 02:38:56;;;;;;;0.80;0.80;;;11.00;99.90;10.60;101288.00;;;;5075329;28;20192;-66
2022/03/29 02:41:32;;;;;;;0.40;0.40;;;10.90;99.90;11.00;101291.00;;;;5091688;28;20177;-67
2022/03/29 02:44:11;;;;;;;0.40;0.40;;;10.90;99.90;10.40;101278.00;;;;5074237;28;20202;-66
2022/03/29 02:46:50;;;;;;;0.30;0.30;;;10.80;99.90;9.80;101293.00;;;;5075328;28;20224;-65
2022/03/29 02:49:28;;;;;;;6.13;5.83;;;10.30;99.90;10.00;101297.00;;;;5091918;28;20196;-66
2022/03/29 02:52:05;;;;;;;2.17;1.83;;;10.30;99.90;9.80;101294.00;;;;5092452;28;20264;-66
2022/03/29 02:54:41;;;;;;;3.93;2.40;;;10.30;99.90;9.50;101288.00;;;;5092058;28;20203;-66
2022/03/29 02:57:18;;;;;;;0.30;0.30;;;10.10;99.90;9.70;101283.00;;;;5091192;28;20233;-66
2022/03/29 02:59:52;;;;;;;0.67;0.67;;;10.10;99.90;9.50;101278.00;;;;5091919;28;20179;-66
2022/03/29 03:02:29;;;;;;;0.80;0.80;;;10.00;99.90;9.90;101242.00;;;;5091812;28;20184;-65
2022/03/29 03:05:06;;;;;;;0.77;0.77;;;10.10;99.90;10.00;101267.00;;;;5074718;28;20191;-66
2022/03/29 03:07:43;;;;;;;1.27;1.17;;;10.30;99.90;10.30;101267.00;;;;5096614;28;20178;-66
2022/03/29 03:10:25;;;;;;;2.27;2.10;;;10.40;99.90;9.60;101265.00;;;;5095399;28;20177;-65
2022/03/29 03:13:02;;;;;;;1.30;1.27;;;10.30;99.90;9.40;101257.00;;;;5113008;28;20204;-65
2022/03/29 03:15:39;;;;;;;0.90;0.90;;;10.00;99.90;9.00;101252.00;;;;5093439;28;20348;-65
2022/03/29 03:18:13;;;;;;;4.47;2.57;;;9.80;99.90;9.00;101218.00;;;;5113405;28;20177;-66
2022/03/29 03:20:52;;;;;;;1.27;1.27;;;9.70;99.90;9.20;101247.00;;;;5115785;28;20559;-66
2022/03/29 03:23:27;;;;;;;0.50;0.50;;;9.70;99.90;9.70;101247.00;;;;5115801;28;20669;-67
2022/03/29 03:26:06;;;;;;;6.53;4.93;;;9.90;99.90;9.60;101244.00;;;;5115805;28;20175;-66
2022/03/29 03:28:51;;;;;;;2.13;2.03;;;9.90;99.90;9.70;101218.00;;;;5115188;28;20266;-66
2022/03/29 03:31:25;;;;;;;0.70;0.70;;;10.00;99.90;9.30;101182.00;;;;5113677;28;20240;-66
2022/03/29 03:33:59;;;;;;;1.03;1.03;;;9.90;99.90;9.40;101218.00;;;;5115376;28;20580;-66
2022/03/29 03:36:36;;;;;;;0.87;0.87;;;9.90;99.90;9.70;101188.00;;;;5114759;28;20183;-66
2022/03/29 03:39:12;;;;;;;3.40;2.50;;;10.00;99.90;9.60;101211.00;;;;5098797;28;20631;-66
2022/03/29 03:41:49;;;;;;;3.33;1.90;;;10.00;99.90;9.90;101211.00;;;;5116293;28;20628;-66
2022/03/29 03:44:25;;;;;;;0.30;0.30;;;10.20;99.90;10.00;101203.00;;;;5115183;28;20183;-66
2022/03/29 03:47:02;;;;;;;0.87;0.87;;;10.30;99.90;10.50;101191.00;;;;5114628;28;20175;-66
2022/03/29 03:49:39;;;;;;;0.50;0.50;;;10.50;99.90;10.30;101204.00;;;;5116461;28;20173;-66
2022/03/29 03:52:16;;;;;;;0.30;0.30;;;10.40;99.90;10.20;101207.00;;;;5116461;27;20208;-66
2022/03/29 03:54:55;;;;;;;0.30;0.30;;;10.40;99.90;10.80;101214.00;;;;5114358;28;20508;-65
2022/03/29 03:57:35;;;;;;;0.30;0.30;;;10.60;99.90;10.20;101214.00;;;;5114792;28;20165;-66
2022/03/29 04:00:11;;;;;;;0.40;0.40;;;10.50;99.90;10.80;101203.00;;;;5096772;28;20171;-66
2022/03/29 04:02:53;;;;;;;0.40;0.40;;;10.60;99.90;10.60;101203.00;;;;5114209;28;20211;-67
2022/03/29 04:05:28;;;;;;;2.20;2.10;;;10.70;99.90;10.70;101185.00;;;;5114616;27;20175;-66
2022/03/29 04:08:02;;;;;;;1.17;0.80;;;10.80;99.90;10.10;101177.00;;;;5097182;28;20199;-66
2022/03/29 04:10:39;;;;;;;2.17;2.07;;;10.70;99.90;9.50;101166.00;;;;5112840;28;20260;-66
2022/03/29 04:13:13;;;;;;;3.73;2.57;;;10.40;99.90;9.90;101165.00;;;;5093636;28;20251;-66
2022/03/29 04:15:50;;;;;;;1.50;1.40;;;10.30;99.90;10.10;101162.00;;;;5077592;28;20177;-66
2022/03/29 04:18:26;;;;;;;2.83;1.43;;;10.30;99.90;9.60;101159.00;;;;5077168;28;20568;-66
2022/03/29 04:21:05;;;;;;;1.97;1.83;;;10.20;99.90;9.10;101154.00;;;;5110946;28;20184;-66
2022/03/29 04:23:39;;;;;;;0.70;0.70;;;9.90;99.90;9.30;101159.00;;;;5094008;28;20185;-66
2022/03/29 04:26:08;;;;;;;1.77;1.60;;;9.80;99.90;9.70;101166.00;;;;5094395;28;20208;-66
2022/03/29 04:28:42;;;;;;;0.93;0.93;;;9.90;99.90;9.90;101173.00;;;;5093536;28;20192;-67
2022/03/29 04:31:13;;;;;;;0.93;0.93;;;10.10;99.90;10.20;101167.00;;;;5094966;28;20197;-66
2022/03/29 04:33:50;;;;;;;0.63;0.63;;;10.20;99.90;10.20;101177.00;;;;5076885;28;20281;-66
2022/03/29 04:36:21;;;;;;;0.20;0.20;;;10.30;99.90;10.20;101190.00;;;;5100395;28;20188;-66
2022/03/29 04:38:53;;;;;;;0.30;0.30;;;10.20;99.90;10.70;101167.00;;;;5114390;28;20176;-66
2022/03/29 04:41:25;;;;;;;0.57;0.57;;;10.40;99.90;10.20;101163.00;;;;5115823;28;20536;-66
2022/03/29 04:44:02;;;;;;;0.70;0.70;;;10.60;99.90;10.70;101159.00;;;;5113470;28;20602;-67
2022/03/29 04:46:38;;;;;;;0.60;0.60;;;10.60;99.90;10.50;101159.00;;;;5114227;28;20180;-67
2022/03/29 04:49:17;;;;;;;2.40;2.00;;;10.70;99.90;10.20;101159.00;;;;5096739;28;20183;-66
2022/03/29 04:51:51;;;;;;;0.30;0.30;;;10.50;99.90;10.40;101165.00;;;;5097017;28;20566;-67
2022/03/29 04:54:31;;;;;;;0.30;0.30;;;10.50;99.90;10.20;101181.00;;;;5096264;28;20176;-66
2022/03/29 04:57:05;;;;;;;0.33;0.33;;;10.40;99.90;10.50;101170.00;;;;5113486;28;20275;-66
2022/03/29 04:59:39;;;;;;;0.30;0.30;;;10.40;99.90;10.80;101152.00;;;;5096812;28;20176;-66
2022/03/29 05:02:25;;;;;;;2.30;2.10;;;10.60;99.90;10.90;101146.00;;;;5113511;28;20590;-66
2022/03/29 05:05:04;;;;;;;1.70;1.60;;;10.80;99.90;10.50;101138.00;;;;5112985;28;20184;-66
2022/03/29 05:07:39;;;;;;;0.50;0.50;;;10.70;99.90;10.20;101138.00;;;;5094294;28;20205;-67
2022/03/29 05:10:17;;;;;;;0.60;0.60;;;10.50;99.90;9.70;101137.00;;;;5093523;28;20216;-67
2022/03/29 05:12:56;;;;;;;0.30;0.30;;;10.40;99.90;10.10;101129.00;;;;5075952;28;20224;-67
2022/03/29 05:15:33;;;;;;;0.37;0.37;;;10.40;99.90;10.70;101131.00;;;;5091116;28;20180;-67
2022/03/29 05:18:13;;;;;;;0.40;0.40;;;10.60;99.90;10.70;101102.00;;;;5076735;28;20276;-67
2022/03/29 05:20:52;;;;;;;0.87;0.87;;;10.70;99.90;10.30;101131.00;;;;5076754;28;20176;-66
2022/03/29 05:23:26;;;;;;;0.30;0.30;;;10.50;99.90;10.30;101123.00;;;;5076351;28;20520;-66
2022/03/29 05:26:00;;;;;;;0.40;0.40;;;10.40;99.90;10.40;101144.00;;;;5094225;28;20169;-66
2022/03/29 05:28:39;;;;;;;0.40;0.40;;;10.50;99.90;10.10;101146.00;;;;5075948;28;20287;-67
2022/03/29 05:31:13;;;;;;;0.40;0.40;;;10.50;99.90;9.70;101140.00;;;;5103100;28;20191;-66
2022/03/29 05:33:47;;;;;;;0.33;0.33;;;10.30;99.90;10.10;101142.00;;;;5113172;28;20653;-67
2022/03/29 05:36:21;;;;;;;0.60;0.60;;;10.20;99.90;10.60;101127.00;;;;5107475;28;20192;-67
2022/03/29 05:38:55;;;;;;;0.40;0.40;;;10.40;99.90;10.20;101096.00;;;;5093011;28;20569;-67
2022/03/29 05:41:35;;;;;;;0.30;0.30;;;10.40;99.90;10.00;101085.00;;;;5075770;28;20189;-67
2022/03/29 05:44:09;;;;;;;0.60;0.60;;;10.20;99.90;10.40;101107.00;;;;5092709;28;20186;-67
2022/03/29 05:49:40;;;;;;;1.17;1.17;;;10.20;99.90;9.80;101117.00;;;;5092991;28;20189;-67
2022/03/29 05:52:17;;;;;;;0.60;0.60;;;10.00;99.90;10.00;101118.00;;;;5075465;28;20201;-66
2022/03/29 05:54:49;;;;;;;8.23;6.53;;;10.00;99.90;10.40;101127.00;;;;5092391;28;20238;-66
2022/03/29 05:57:23;;;;;;;0.40;0.40;;;10.30;99.90;10.50;101123.00;;;;5075549;28;20214;-67
2022/03/29 05:59:57;;;;;;;0.40;0.40;;;10.40;99.90;10.70;101121.00;;;;5091166;28;20258;-66
2022/03/29 06:02:31;;;;;;;0.30;0.30;;;10.60;99.90;10.50;101116.00;;;;5092022;28;20182;-66
2022/03/29 06:05:01;;;;;;;1.70;1.60;;;10.50;99.90;10.70;101118.00;;;;5075088;28;20185;-66
2022/03/29 06:07:32;;;;;;;0.40;0.40;;;10.70;99.90;10.60;101124.00;;;;5090697;28;20187;-66
2022/03/29 06:10:06;;;;;;;0.47;0.47;;;10.70;99.90;9.40;101126.00;;;;5092130;28;20322;-66
2022/03/29 06:12:46;;;;;;;0.50;0.50;;;10.20;99.90;9.60;101126.00;;;;5091996;28;20624;-66
2022/03/29 06:15:18;;;;;;;0.60;0.60;;;10.10;99.90;9.60;101126.00;;;;5093117;28;20202;-66
2022/03/29 06:18:01;;;;;;;0.30;0.30;;;10.10;99.90;9.90;101135.00;;;;5075291;28;20654;-66
2022/03/29 06:20:26;;;;;;;0.50;0.50;;;10.10;99.90;10.20;101131.00;;;;5091849;28;20189;-66
2022/03/29 06:22:57;;;;;;;0.30;0.30;;;10.30;99.90;10.50;101123.00;;;;5075373;28;20540;-66
2022/03/29 06:25:32;;;;;;;0.50;0.50;;;10.50;99.90;10.80;101125.00;;;;5075350;28;20183;-67
2022/03/29 06:28:03;;;;;;;0.40;0.40;;;10.60;99.90;11.30;101112.00;;;;5091310;28;20169;-66
2022/03/29 06:30:35;;;;;;;1.00;1.00;;;11.00;99.90;10.80;101109.00;;;;5075279;28;20175;-67
2022/03/29 06:33:09;;;;;;;0.50;0.50;;;10.90;99.90;10.70;101110.00;;;;5091745;28;20294;-66
2022/03/29 06:35:40;;;;;;;0.30;0.30;;;10.90;99.90;9.80;101105.00;;;;5091535;28;20195;-66
2022/03/29 06:38:12;;;;;;;0.30;0.30;;;10.50;99.90;10.20;101118.00;;;;5075043;28;20185;-66
2022/03/29 06:40:43;;;;;;;0.80;0.80;;;10.50;99.90;10.00;101120.00;;;;5075050;28;20229;-66
2022/03/29 06:43:14;;;;;;;0.60;0.60;;;10.30;99.90;10.40;101124.00;;;;5091125;28;20193;-66
2022/03/29 06:45:57;;;;;;;0.63;0.63;;;10.40;99.90;11.00;101068.00;;;;5075018;28;20195;-66
2022/03/29 06:48:25;;;;;;;0.80;0.80;;;10.80;99.90;11.20;101107.00;;;;5091816;28;20181;-67
2022/03/29 06:50:51;;;;;;;1.60;1.50;;;10.90;99.90;10.10;101107.00;;;;5091819;28;20181;-65
2022/03/29 06:53:25;;;;;;;1.70;1.60;;;10.80;99.90;10.40;101118.00;;;;5075520;28;20612;-65
2022/03/29 06:55:51;;;;;;;5.50;2.73;;;10.70;99.90;10.00;101125.00;;;;5095762;28;20534;-66
2022/03/29 06:58:19;;;;;;;1.27;0.83;;;10.50;99.90;10.60;101121.00;;;;5095274;28;20204;-66
2022/03/29 07:00:47;;;;;;;1.83;1.73;;;10.70;99.90;11.10;101127.00;;;;5096033;28;20174;-67
2022/03/29 07:03:59;;;;;;;0.37;0.37;;;10.90;99.90;11.10;101121.00;;;;5095542;28;20190;-66
2022/03/29 07:06:30;;;;;;;0.30;0.30;;;11.20;99.90;10.60;101130.00;;;;5090291;28;20192;-66
2022/03/29 07:11:42;;;;;;;0.60;0.60;;;11.00;99.90;10.40;101129.00;;;;5115748;28;20226;-66
2022/03/29 07:14:08;;;;;;;11.93;10.73;;;10.80;99.90;11.00;101130.00;;;;5115367;28;20253;-67
2022/03/29 07:16:39;;;;;;;0.60;0.60;;;11.10;99.90;11.20;101137.00;;;;5116042;28;20245;-67
2022/03/29 07:19:11;;;;;;;1.33;1.33;;;11.30;99.90;11.10;101138.00;;;;5104130;28;20188;-66
2022/03/29 07:21:39;;;;;;;1.43;0.83;;;11.30;99.90;11.60;101130.00;;;;5114143;28;20201;-67
2022/03/29 07:24:08;;;;;;;1.90;1.83;;;11.60;99.90;11.10;101129.00;;;;5116096;28;20241;-67
2022/03/29 07:26:35;;;;;;;2.80;1.37;;;11.60;99.90;10.60;101118.00;;;;5097826;28;20178;-67
2022/03/29 07:29:04;;;;;;;1.97;1.87;;;11.30;99.90;10.90;101126.00;;;;5115507;28;20184;-65
2022/03/29 07:31:31;;;;;;;0.80;0.80;;;11.10;99.90;11.50;101117.00;;;;5090445;28;20619;-67
2022/03/29 07:33:59;;;;;;;0.67;0.67;;;11.40;99.90;11.40;101119.00;;;;5110687;28;20675;-67
2022/03/29 07:36:25;;;;;;;1.37;1.37;;;11.50;99.90;11.20;101114.00;;;;5108271;28;20188;-67
2022/03/29 07:38:53;;;;;;;0.40;0.40;;;11.50;99.90;10.90;101111.00;;;;5094776;28;20180;-66
2022/03/29 07:41:22;;;;;;;3.43;2.40;;;11.40;99.90;10.30;101116.00;;;;5093259;28;20269;-66
2022/03/29 07:43:47;;;;;;;3.50;3.20;;;11.10;99.90;10.90;101120.00;;;;5075562;28;20211;-68
2022/03/29 07:46:19;;;;;;;6.40;4.87;;;11.30;99.90;10.00;101114.00;;;;5086757;28;20192;-67
2022/03/29 07:48:49;;;;;;;1.50;1.40;;;11.00;99.90;10.50;101124.00;;;;5097839;28;20560;-67
2022/03/29 07:51:23;;;;;;;1.60;1.60;;;10.90;99.90;11.10;101128.00;;;;5114319;28;20179;-68
2022/03/29 07:53:53;;;;;;;2.50;2.33;;;11.30;99.90;11.70;101125.00;;;;5114315;28;20262;-69
2022/03/29 07:56:22;;;;;;;0.73;0.73;;;11.60;99.90;12.00;101125.00;;;;5098182;28;20172;-68
2022/03/29 07:58:53;;;;;;;0.40;0.40;;;12.00;99.90;11.50;101111.00;;;;5097843;28;20217;-64
2022/03/29 08:01:19;;;;;;;2.83;1.90;;;11.90;99.90;12.10;101112.00;;;;5098275;28;20229;-68
2022/03/29 08:03:48;;;;;;;3.17;2.97;;;12.10;99.90;12.60;101117.00;;;;5097766;28;20189;-68
2022/03/29 08:06:19;;;;;;;2.53;1.40;;;12.40;99.90;12.30;101107.00;;;;5097454;28;20178;-67
2022/03/29 08:08:48;;;;;;;1.40;1.33;;;12.50;99.90;12.10;101099.00;;;;5098028;28;20190;-69
2022/03/29 08:11:21;;;;;;;1.67;1.63;;;12.60;99.90;12.70;101091.00;;;;5098222;28;20177;-68
2022/03/29 08:13:58;;;;;;;2.10;1.67;;;12.80;99.90;12.60;101095.00;;;;5098469;28;20188;-67
2022/03/29 08:16:28;;;;;;;1.27;1.27;;;12.90;99.90;11.50;101086.00;;;;5116069;28;20186;-67
2022/03/29 08:18:59;;;;;;;2.50;1.50;;;12.50;99.90;11.20;101096.00;;;;5114792;28;20181;-66
2022/03/29 08:24:23;;;;;;;2.33;2.20;;;12.20;99.90;12.40;101096.00;;;;5114002;28;20545;-68
2022/03/29 08:26:53;;;;;;;1.17;1.17;;;12.40;99.90;12.20;101101.00;;;;5114920;28;20245;-68
2022/03/29 08:29:25;;;;;;;2.63;2.43;;;12.60;99.90;11.90;101102.00;;;;5115722;28;20177;-68
2022/03/29 08:31:56;;;;;;;7.77;4.23;;;12.50;99.90;11.40;101092.00;;;;5114597;28;20239;-67
2022/03/29 08:34:27;;;;;;;2.53;1.70;;;12.20;99.90;11.50;101085.00;;;;5096993;28;20309;-67
2022/03/29 08:37:01;;;;;;;2.50;2.00;;;12.00;99.90;11.00;101078.00;;;;5114410;28;20625;-66
2022/03/29 08:39:32;;;;;;;3.23;2.30;;;11.80;99.90;10.80;101052.00;;;;5114118;28;20165;-66
2022/03/29 08:42:19;;;;;;;5.17;4.77;;;11.50;99.90;10.80;101082.00;;;;5114395;28;20180;-66
2022/03/29 08:44:53;;;;;;;3.60;3.30;;;11.50;99.90;10.50;101053.00;;;;5114796;28;20203;-66
2022/03/29 08:47:26;;;;;;;3.80;3.50;;;11.30;99.90;10.90;101106.00;;;;5114362;28;20628;-66
2022/03/29 08:49:54;;;;;;;2.07;2.03;;;11.50;99.90;11.20;101056.00;;;;5114540;28;20176;-66
2022/03/29 08:52:28;;;;;;;3.97;3.60;;;11.50;99.90;10.90;101052.00;;;;5115137;28;20221;-67
2022/03/29 08:55:03;;;;;;;8.20;4.37;;;11.50;99.90;10.70;101083.00;;;;5114743;28;20174;-66
2022/03/29 08:57:38;;;;;;;5.43;3.53;;;11.40;99.90;10.30;101086.00;;;;5097589;28;20184;-66
2022/03/29 09:00:10;;;;;;;3.73;3.50;;;11.20;99.90;10.90;101087.00;;;;5115159;28;20168;-66
2022/03/29 09:02:41;;;;;;;2.73;2.53;;;11.30;99.90;10.90;101085.00;;;;5097364;28;20181;-66
2022/03/29 09:05:20;;;;;;;4.83;3.90;;;11.50;99.90;11.10;101090.00;;;;5114114;28;20174;-66
2022/03/29 09:08:01;;;;;;;9.47;5.67;;;11.70;99.90;11.00;101049.00;;;;5113455;28;20189;-66
2022/03/29 09:10:49;;;;;;;6.03;3.60;;;11.60;99.90;11.20;101088.00;;;;5097010;28;20627;-66
2022/03/29 09:13:24;;;;;;;3.50;3.17;;;11.80;99.90;11.30;101082.00;;;;5113444;28;20233;-66
2022/03/29 09:16:01;;;;;;;2.97;2.77;;;12.00;99.90;11.10;101080.00;;;;5113199;28;20630;-66
2022/03/29 09:18:37;;;;;;;1.80;1.60;;;11.80;99.90;11.20;101040.00;;;;5113819;28;20685;-66
2022/03/29 09:21:19;;;;;;;7.63;5.83;;;11.90;99.90;11.70;101083.00;;;;5113359;28;20182;-66
2022/03/29 09:24:11;;;;;;;10.27;7.63;;;12.20;99.90;11.10;101059.00;;;;5113615;28;20174;-66
2022/03/29 09:26:45;;;;;;;16.23;11.30;;;12.00;99.90;11.00;101072.00;;;;5096050;28;20188;-65
2022/03/29 09:29:20;;;;;;;7.17;6.57;;;11.90;99.90;10.90;101068.00;;;;5096887;28;20634;-66
2022/03/29 09:32:12;;;;;;;5.30;3.97;;;11.70;99.90;11.30;101067.00;;;;5113275;28;20219;-67
2022/03/29 09:34:43;;;;;;;3.60;3.37;;;11.80;99.90;11.90;101075.00;;;;5113531;28;20220;-67
2022/03/29 09:37:13;;;;;;;7.40;3.93;;;12.30;99.90;11.70;101065.00;;;;5096246;28;20200;-67
2022/03/29 09:39:49;;;;;;;4.17;3.73;;;12.30;99.90;12.00;101025.00;;;;5114695;28;20175;-67
2022/03/29 09:42:19;;;;;;;3.53;2.17;;;12.50;99.90;12.10;101046.00;;;;5113543;28;20655;-67
2022/03/29 09:44:51;;;;;;;12.87;10.07;;;12.70;99.90;12.50;101045.00;;;;5113641;28;20244;-67
2022/03/29 09:47:45;;;;;;;4.57;3.57;;;13.00;99.90;12.10;101032.00;;;;5113151;28;20642;-67
2022/03/29 09:50:16;;;;;;;5.63;3.30;;;13.10;99.90;12.20;101002.00;;;;5095768;28;20184;-67
2022/03/29 09:52:49;;;;;;;3.13;2.93;;;12.90;99.90;13.30;101042.00;;;;5113508;28;20196;-67
2022/03/29 09:55:26;;;;;;;1.50;1.40;;;13.40;99.90;13.30;101032.00;;;;5096202;28;20275;-67
2022/03/29 09:58:01;;;;;;;9.23;5.97;;;13.70;99.90;13.10;100996.00;;;;5113152;28;20642;-67
2022/03/29 10:00:32;;;;;;;5.50;4.30;;;13.90;99.90;12.90;100998.00;;;;5113346;28;20565;-67
2022/03/29 10:03:03;;;;;;;7.53;5.87;;;13.80;99.90;12.80;101031.00;;;;5113256;28;20192;-67
2022/03/29 10:05:37;;;;;;;0.80;0.80;;;13.70;99.90;12.60;101044.00;;;;5112999;28;20532;-67
2022/03/29 10:11:27;;;;;;;2.60;2.10;;;13.50;99.90;12.60;101023.00;;;;5092798;28;20209;-67
2022/03/29 10:14:02;;;;;;;5.17;3.30;;;13.20;99.90;12.20;100987.00;;;;5092555;28;20248;-67
2022/03/29 10:16:37;;;;;;;1.90;1.80;;;13.10;99.90;12.20;101021.00;;;;5092404;28;20634;-67
2022/03/29 10:19:13;;;;;;;3.77;3.57;;;13.00;99.90;12.70;101018.00;;;;5075421;28;20665;-67
2022/03/29 10:43:52;;;;;;;0.53;0.53;;;12.90;99.90;12.40;101005.00;;;;5111681;27;1413658;-66
2022/03/29 10:46:42;;;;;;;7.13;4.30;;;12.90;99.90;13.10;100991.00;;;;5113532;28;20237;-67
2022/03/29 10:49:34;;;;;;;4.43;3.70;;;13.40;99.90;13.40;101000.00;;;;5096207;28;20203;-67
2022/03/29 10:52:06;;;;;;;0.83;0.83;;;13.60;99.90;13.60;100989.00;;;;5129929;28;20204;-67
2022/03/29 10:54:43;;;;;;;0.93;0.93;;;13.90;99.90;12.20;100950.00;;;;5131290;28;20160;-67
2022/03/29 10:57:28;;;;;;;3.17;2.47;;;13.20;99.90;13.20;100985.00;;;;5096216;28;20714;-67
2022/03/29 11:00:18;;;;;;;5.93;4.33;;;13.50;99.90;14.20;100987.00;;;;5113730;28;20180;-67
2022/03/29 11:03:14;;;;;;;4.83;3.80;;;14.00;99.90;13.70;100983.00;;;;5112785;28;20191;-67
2022/03/29 11:06:06;;;;;;;4.30;3.90;;;14.20;99.90;14.10;101004.00;;;;5112569;28;20184;-67
2022/03/29 11:09:08;;;;;;;6.23;5.73;;;14.40;99.90;13.00;100979.00;;;;5130879;28;20285;-67
2022/03/29 11:11:48;;;;;;;6.70;6.10;;;13.90;99.90;14.00;100982.00;;;;5112826;28;20195;-68
2022/03/29 11:14:39;;;;;;;3.27;2.33;;;14.20;99.90;13.20;100969.00;;;;5111957;28;20194;-67
2022/03/29 11:17:16;;;;;;;1.20;0.93;;;13.70;99.90;14.00;100987.00;;;;5130978;28;20183;-67
2022/03/29 11:19:50;;;;;;;3.60;3.30;;;14.20;99.90;13.50;100980.00;;;;5130763;28;20544;-67
2022/03/29 11:22:25;;;;;;;0.80;0.60;;;14.10;99.90;13.90;100942.00;;;;5095482;28;20214;-69
2022/03/29 11:25:05;;;;;;;4.87;3.80;;;14.40;99.90;14.40;100996.00;;;;5131096;28;20188;-68
2022/03/29 11:27:40;;;;;;;3.33;3.07;;;14.50;99.90;14.70;100999.00;;;;5112352;28;20204;-67
2022/03/29 11:30:16;;;;;;;2.37;2.07;;;14.90;99.90;13.50;100999.00;;;;5095823;28;20606;-68
2022/03/29 11:32:47;;;;;;;0.87;0.77;;;14.50;99.90;13.90;100993.00;;;;5111923;28;20193;-68
2022/03/29 11:35:24;;;;;;;5.23;4.80;;;14.40;99.90;13.50;100977.00;;;;5112374;28;20169;-67
2022/03/29 11:38:10;;;;;;;10.73;6.63;;;14.20;99.90;12.90;100979.00;;;;5112089;28;20271;-67
2022/03/29 11:40:45;;;;;;;1.10;1.03;;;13.80;99.90;13.40;100968.00;;;;5111943;28;20198;-67
2022/03/29 11:43:25;;;;;;;0.20;0.20;;;13.80;99.90;14.50;100983.00;;;;5106175;28;20242;-68
2022/03/29 11:45:54;;;;;;;3.47;2.63;;;14.50;99.90;15.00;100992.00;;;;5081376;28;20204;-64
2022/03/29 11:48:24;;;;;;;3.17;2.80;;;14.90;99.90;14.60;100963.00;;;;5098130;28;20513;-65
2022/03/29 11:50:53;;;;;;;7.80;5.70;;;14.70;99.90;13.40;100982.00;;;;5098420;28;20691;-67
2022/03/29 11:53:34;;;;;;;2.13;1.53;;;14.30;99.90;13.50;100969.00;;;;5081471;28;20670;-67
2022/03/29 11:56:15;;;;;;;8.17;3.67;;;14.10;99.90;14.20;100972.00;;;;5098453;28;20174;-67
2022/03/29 11:58:46;;;;;;;8.73;5.73;;;14.20;99.90;12.80;100952.00;;;;5098050;28;20197;-67
2022/03/29 12:01:34;;;;;;;2.47;2.37;;;13.80;99.90;14.10;100954.00;;;;5096973;28;20178;-67